Hlavní strana
METAR-TAF:

METAR-TAF

Letiště :

Al Hoceima, Maroko

zeměpisná šířka: 35-11N, zeměpisná délka: 003-51W, výška: 27 m

Aktuální stav počasí

Zpráva byla vytvořena před 1 hodinou a 11 minutami, v 04:00 UTC
Západojihozápadní vítr 3 kt
Teplota 13°C
Vlhkost vzduchu 94%
Tlak 1022 hPa
Viditelnost: 4600 m

METAR: GMTA 070400Z 24003KT 4600 NSC 13/12 Q1022 NOSIG

Čas: 06:11 (05:11 UTC)

Předpověď počasí

Zpráva byla vytvořena před 6 hodinami a 11 minutami, v 23:00 UTC
Předpověď platná od 07 v 00 UTC do 08 v 06 UTC
vítr z různých směrů 2 kt
Viditelnost 10 km a více
Žádná oblačnost pod 1500 m, nevyskytují se cumulonimby.
Pravděpodobnost 40%
od 07 v 00 UTC do 07 v 07 UTC
Viditelnost: 2000 m
Oblačno až skoro zataženo ve výšce 800 ft
kouřmo

TAF: GMTA 062300Z 0700/0806 VRB02KT CAVOK PROB40 0700/0707 2000 BR BKN008

Stav a předpovědi počasí z více než 4 000 letišť (zprávy METAR a TAF).

Červené a žluté tečky na mapě představují dostupné meteorologické stanice.

Když kurzor umístíte na tečku, zobrazí se název stanice.

Pak kliknutím zobrazíte stav a předpověď počasí.

Chcete-li změnit mapu, kliknutím na zelené tlačítko se znaménkem +mapu přiblížíte, kliknutím na zelené tlačítko se znaménkem – mapu oddálíte a kliknutím na zelené šipky přejdete na sousední mapy.


METAR-TAF: